메인 페이지
METAR-TAF:

METAR-TAF

공항 :

옐로나이프, 노스웨스트 준주, 캐나다

위도: 62-28N, 경도: 114-27W, 고도: 205m

현재 날씨관측

예보는 1 시간 2분 전, 04:00시(UTC)에 발표되었습니다.
북북동12kt
온도 -2°C
습도 74%
기압 1013 hPa
시정: 24.1km
고도 8000ft 상공 구름 조금
고도 11000ft 상공 구름 조금

METAR: CYZF 250400Z 03012KT 15SM FEW080 FEW110 M02/M06 A2991 RMK AC1AC1 AC TR AC TR SLP146

시각: 23:02 (05:02 UTC)

예보

예보는 5 시간 23분 전, 23:39시(UTC)에 발표되었습니다.
예보 대상 시간: 25일 00시부터 25일 24시까지 (UTC)
북서12kt
시정: 10km
고도 5000ft 상공 구름 조금
고도 20000ft 상공 구름 보통
25일 0300시부터 (UTC)
6kt
시정: 10km
고도 5000ft 상공 구름 보통
고도 8000ft 상공 구름 많음
25일 0800시부터 (UTC)
6kt
시정: 10km
고도 2000ft 상공 구름 보통
일시적
25일 08시부터 25일 12시까지 (UTC)
고도 800ft 상공 구름 조금
고도 2000ft 상공 구름 많음
전환 중
25일 08시부터 25일 10시까지 (UTC)
8kt
25일 1300시부터 (UTC)
동남동8kt
시정: 10km
고도 1500ft 상공 구름 보통
전환 중
25일 16시부터 25일 18시까지 (UTC)
남남동10kt
25일 2100시부터 (UTC)
남남동12kt
시정: 10km
고도 8000ft 상공 구름 조금
고도 18000ft 상공 구름 보통

TAF: CYZF 242339Z 2500/2524 31012KT P6SM FEW050 SCT200 FM250300 36006KT P6SM SCT050 BKN080 FM250800 35006KT P6SM SCT020 TEMPO 2508/2512 FEW008 BKN020 BECMG 2508/2510 09008KT FM251300 11008KT P6SM SCT015 BECMG 2516/2518 15010KT FM252100 15012KT P6SM FEW080 SCT180 RMK NXT FCST BY 250600Z

4,000개 이상의 공항 관측 자료 및 예보 (METAR 및 TAF 보고).

지도상에서 검색 가능한 기상관측소가 노란 점과 빨간 점으로 표시되어 있습니다.

기상관측소 명을 보려면 표시 위로 마우스를 이동하세요.

날씨 관측과 예보를 보려면 클릭하세요.

지도 변경 : 확대하려면 엑스 표시가 있는 녹색 버튼, 축소하려면 빼기 표시가 있는 녹색 버튼, 다음 페이지의 지도를 보려면 녹색 화살표를 클릭하세요.


METAR-TAF: